Airfield :
LOGIN :

Register | Disclaimer

   EN    FR    IT 

 










Legend :    VFR   Marginal VFR   IFR   Intensive IFR   Very Intensive IFR
Visi :
Ceiling :
>= 8 km
>= 3000ft
5 to 8 km
1000 to 3000 ft
1500m to 5 km
500 to 1000 ft
800 to 1500m
200 to 500 ft
< 800m
< 200 ft
Symbols :   Thunderstorms  Fog  Heavy snow  Heavy precipitations  Wind > 20 kt
SIGMETs :     Misc.  Thunderstorms  Icing  Turbulence  Mountain Waves  Volcanic Ashes






- Airport Elevation : 1213 ft
- IATA code : SCQ


LEST - Santiago de Compostela

CURRENT METAR :
  • 281330Z 31004KT 230V350 9999 FEW030 BKN045 17/09 Q1025 NOSIG

EXPIRED METARs :
  • 281300Z 29005KT 260V330 9999 SCT030 BKN043 17/09 Q1025 NOSIG
  • 281230Z VRB04KT 9999 FEW028 SCT045 17/10 Q1025 NOSIG
  • 281200Z 31006KT 240V010 9999 FEW026 BKN045 17/09 Q1025 NOSIG
  • 281130Z VRB03KT 9999 FEW033 SCT045 17/08 Q1025 NOSIG
  • 281100Z VRB01KT 9999 FEW025 17/08 Q1025 NOSIG

TAF TAF LEST
Valid from the 28 at 12:00 until the 29 at 12:00 UTC


281100Z 2812/2912 33008KT 9999 SCT020 TX18/2814Z TN11/2900Z
TEMPO 2900/2912 BKN010
PROB40
TEMPO 2904/2910 3000 BCFG BKN005



MET'MAP, your aeronautical weather chart ! - Copyright ORBIFLY December 2007 - Disclaimer

ORBIFLY MET'MAP TEAM :

Programming & Development : Alexandra Zaïnal
Concept & original design : Baudouin d'Aumeries
Assistance for programming : Marc-Olivier Méhu
Technical & hardware support : Manuel Goepfert

Contact : metmap@orbifly.com




SOURCES & CREDITS :

   NOAA